createdAt,value
2022-11-12T00:03:17.181Z,101995.56
2022-11-12T00:08:45.366Z,101987.16
2022-11-12T00:14:23.018Z,101989.91
2022-11-12T00:19:55.406Z,101994.50
2022-11-12T00:25:27.174Z,101993.75
2022-11-12T00:30:52.513Z,101993.16
2022-11-12T00:36:19.962Z,101983.81
2022-11-12T00:41:54.403Z,101994.38
2022-11-12T00:47:20.578Z,101983.34
2022-11-12T00:52:45.016Z,101987.94
2022-11-12T00:58:11.425Z,101985.50
2022-11-12T01:03:33.997Z,101987.41
2022-11-12T01:09:00.615Z,101983.28
2022-11-12T01:14:35.703Z,101986.81
2022-11-12T01:20:04.050Z,101980.97
2022-11-12T01:25:27.030Z,101977.59
2022-11-12T01:30:54.484Z,101980.28
2022-11-12T01:36:19.282Z,101978.81
2022-11-12T01:41:47.905Z,101976.28
2022-11-12T01:47:28.246Z,101971.06
2022-11-12T01:52:57.706Z,101966.88
2022-11-12T01:58:24.889Z,101974.81
2022-11-12T02:04:00.216Z,101962.03
2022-11-12T02:09:27.048Z,101962.25
2022-11-12T02:14:52.153Z,101968.38
2022-11-12T02:20:19.720Z,101967.53
2022-11-12T02:25:45.141Z,101966.00
2022-11-12T02:31:19.366Z,101968.69
2022-11-12T02:36:53.571Z,101966.16
2022-11-12T02:42:38.719Z,101965.38
2022-11-12T02:48:04.653Z,101976.63
2022-11-12T02:53:29.798Z,101977.56
2022-11-12T02:58:54.898Z,101975.81
2022-11-12T03:04:17.999Z,101979.41
2022-11-12T03:09:43.184Z,101977.00
2022-11-12T03:15:31.982Z,101990.28
2022-11-12T03:20:55.551Z,101991.34
2022-11-12T03:26:22.481Z,101995.78
2022-11-12T03:31:51.158Z,102000.31
2022-11-12T03:37:22.742Z,102004.72
2022-11-12T03:42:50.832Z,102004.88
2022-11-12T03:48:19.264Z,101991.09
2022-11-12T03:53:48.653Z,101977.28
2022-11-12T03:59:11.516Z,101981.78
2022-11-12T04:04:58.699Z,101982.03
2022-11-12T04:10:23.702Z,101979.69
2022-11-12T04:16:15.915Z,101976.31
2022-11-12T04:21:54.017Z,101976.63
2022-11-12T04:27:23.420Z,101971.59
2022-11-12T04:32:52.310Z,101969.16
2022-11-12T04:38:25.741Z,101971.00
2022-11-12T04:44:05.597Z,101967.63
2022-11-12T04:49:31.168Z,101966.16
2022-11-12T04:55:02.658Z,101974.19
2022-11-12T05:00:26.041Z,101978.69
2022-11-12T05:05:54.302Z,101983.19
2022-11-12T05:11:25.177Z,101990.16
2022-11-12T05:16:49.515Z,101990.22
2022-11-12T05:22:27.410Z,101991.16
2022-11-12T05:28:01.853Z,102001.72
2022-11-12T05:33:24.504Z,102002.53
2022-11-12T05:38:50.997Z,102012.13
2022-11-12T05:44:15.164Z,102012.22
2022-11-12T05:49:40.239Z,102013.28
2022-11-12T05:55:04.409Z,102015.88
2022-11-12T06:00:30.853Z,102030.81
2022-11-12T06:05:57.677Z,102030.81
2022-11-12T06:11:21.912Z,102037.00
2022-11-12T06:22:31.734Z,102037.31
2022-11-12T06:27:57.193Z,102037.31
2022-11-12T06:33:21.641Z,102033.94
2022-11-12T06:38:57.176Z,102036.56
2022-11-12T06:44:22.664Z,102037.38
2022-11-12T06:49:50.776Z,102040.91
2022-11-12T06:55:15.443Z,102047.75
2022-11-12T07:00:45.538Z,102047.69
2022-11-12T07:06:13.977Z,102050.16
2022-11-12T07:11:37.169Z,102048.31
2022-11-12T07:17:07.448Z,102055.06
2022-11-12T07:22:35.981Z,102049.59
2022-11-12T07:28:00.392Z,102052.63
2022-11-12T07:33:37.678Z,102046.97
2022-11-12T07:39:06.584Z,102033.34
2022-11-12T07:44:31.782Z,102038.69
2022-11-12T07:49:54.816Z,102036.25
2022-11-12T07:55:20.532Z,102037.13
2022-11-12T08:00:43.939Z,102030.00
2022-11-12T08:06:08.701Z,102022.69
2022-11-12T08:11:42.554Z,102026.38
2022-11-12T08:17:10.553Z,102018.91
2022-11-12T08:22:35.169Z,102014.16
2022-11-12T08:28:14.753Z,102018.56
2022-11-12T08:33:45.045Z,102024.31
2022-11-12T08:39:13.935Z,102033.38
2022-11-12T08:44:50.421Z,102044.59
2022-11-12T08:50:25.732Z,102039.88
2022-11-12T08:55:48.659Z,102034.16
2022-11-12T09:01:15.919Z,102038.91
2022-11-12T09:06:54.084Z,102030.69
2022-11-12T09:12:19.886Z,102024.31
2022-11-12T09:17:46.570Z,102020.38
2022-11-12T09:23:22.539Z,102036.84
2022-11-12T09:28:50.515Z,102029.25
2022-11-12T09:34:21.712Z,102033.09
2022-11-12T09:39:47.039Z,102031.28
2022-11-12T09:45:22.055Z,102026.00
2022-11-12T09:51:07.251Z,102030.75
2022-11-12T09:57:18.156Z,102029.50
2022-11-12T10:02:46.851Z,102029.13
2022-11-12T10:08:32.689Z,102038.22
2022-11-12T10:14:10.124Z,102033.31
2022-11-12T10:19:49.629Z,102039.81
2022-11-12T10:25:45.655Z,102037.41
2022-11-12T10:31:17.665Z,102034.47
2022-11-12T10:36:48.989Z,102043.31
2022-11-12T10:42:18.659Z,102037.97
2022-11-12T10:47:46.680Z,102023.88
2022-11-12T10:53:16.715Z,102018.09
2022-11-12T10:58:54.358Z,102026.19
2022-11-12T11:04:33.013Z,102023.53
2022-11-12T11:10:03.524Z,102019.44
2022-11-12T11:15:30.407Z,102030.09
2022-11-12T11:21:04.822Z,102021.75
2022-11-12T11:26:45.078Z,102012.25
2022-11-12T11:32:18.698Z,102009.50
2022-11-12T11:37:58.616Z,102000.66
2022-11-12T11:43:50.931Z,101997.84
2022-11-12T11:49:33.255Z,101989.63
2022-11-12T11:55:21.525Z,101990.16
2022-11-12T12:01:00.752Z,101977.56
2022-11-12T12:06:28.599Z,101976.00
2022-11-12T12:12:01.626Z,101979.69
2022-11-12T12:17:42.156Z,101973.25
2022-11-12T12:23:18.480Z,101972.06
2022-11-12T12:28:47.534Z,101949.13
2022-11-12T12:34:24.091Z,101946.91
2022-11-12T12:39:58.994Z,101942.25
2022-11-12T12:45:39.645Z,101937.66
2022-11-12T12:51:08.019Z,101945.47
2022-11-12T12:56:50.853Z,101940.91
2022-11-12T13:02:26.547Z,101945.38
2022-11-12T13:07:56.327Z,101939.34
2022-11-12T13:13:39.608Z,101938.41
2022-11-12T13:19:29.167Z,101916.50
2022-11-12T13:25:08.990Z,101923.56
2022-11-12T13:31:06.931Z,101918.66
2022-11-12T13:36:33.281Z,101928.66
2022-11-12T13:42:27.894Z,101927.19
2022-11-12T13:47:56.276Z,101921.66
2022-11-12T13:53:31.880Z,101913.94
2022-11-12T13:59:11.988Z,101919.19
2022-11-12T14:04:37.003Z,101914.59
2022-11-12T14:10:10.728Z,101918.59
2022-11-12T14:15:54.442Z,101913.34
2022-11-12T14:21:32.440Z,101914.97
2022-11-12T14:27:02.449Z,101909.59
2022-11-12T14:32:30.165Z,101910.25
2022-11-12T14:38:02.738Z,101893.66
2022-11-12T14:43:41.599Z,101891.13
2022-11-12T14:49:09.436Z,101880.41
2022-11-12T14:54:45.406Z,101881.56
2022-11-12T15:00:22.965Z,101876.88
2022-11-12T15:06:00.127Z,101882.75
2022-11-12T15:11:33.143Z,101876.66
2022-11-12T15:17:00.819Z,101876.72
2022-11-12T15:22:35.451Z,101871.44
2022-11-12T15:28:28.345Z,101864.44
2022-11-12T15:33:57.541Z,101856.81
2022-11-12T15:39:28.439Z,101875.47
2022-11-12T15:45:01.998Z,101869.25
2022-11-12T15:50:45.302Z,101877.13
2022-11-12T15:56:44.495Z,101870.09
2022-11-12T16:02:13.261Z,101862.13
2022-11-12T16:07:49.725Z,101878.31
2022-11-12T16:13:26.642Z,101868.69
2022-11-12T16:19:31.304Z,101876.75
2022-11-12T16:24:55.368Z,101867.84
2022-11-12T16:30:29.506Z,101890.47
2022-11-12T16:36:01.514Z,101880.28
2022-11-12T16:41:29.855Z,101882.16
2022-11-12T16:46:57.711Z,101878.41
2022-11-12T16:52:24.608Z,101883.75
2022-11-12T16:57:53.178Z,101887.75
2022-11-12T17:03:21.610Z,101877.19
2022-11-12T17:08:48.539Z,101879.25
2022-11-12T17:14:23.021Z,101878.31
2022-11-12T17:19:57.064Z,101863.56
2022-11-12T17:25:31.493Z,101871.50
2022-11-12T17:31:05.511Z,101855.72
2022-11-12T17:36:32.820Z,101848.13
2022-11-12T17:42:16.207Z,101839.53
2022-11-12T17:47:44.447Z,101850.16
2022-11-12T17:53:18.593Z,101848.47
2022-11-12T17:58:46.972Z,101848.78
2022-11-12T18:04:23.496Z,101841.94
2022-11-12T18:10:19.905Z,101849.13
2022-11-12T18:15:47.220Z,101856.22
2022-11-12T18:21:14.343Z,101861.81
2022-11-12T18:26:51.899Z,101846.31
2022-11-12T18:32:22.298Z,101859.00
2022-11-12T18:37:46.575Z,101852.19
2022-11-12T18:43:19.750Z,101852.53
2022-11-12T18:48:58.613Z,101863.09
2022-11-12T18:54:21.462Z,101855.59
2022-11-12T18:59:51.798Z,101849.72
2022-11-12T19:05:16.933Z,101851.66
2022-11-12T19:10:42.158Z,101848.28
2022-11-12T19:16:10.629Z,101844.06
2022-11-12T19:21:37.287Z,101843.25
2022-11-12T19:27:00.518Z,101847.63
2022-11-12T19:32:25.014Z,101846.00
2022-11-12T19:37:54.707Z,101848.72
2022-11-12T19:43:18.581Z,101843.56
2022-11-12T19:48:47.027Z,101847.22
2022-11-12T19:54:18.398Z,101841.31
2022-11-12T19:59:46.621Z,101841.56
2022-11-12T20:05:12.641Z,101847.91
2022-11-12T20:10:40.321Z,101839.00
2022-11-12T20:16:10.778Z,101845.31
2022-11-12T20:21:36.787Z,101849.13
2022-11-12T20:27:07.614Z,101840.69
2022-11-12T20:32:34.533Z,101837.47
2022-11-12T20:37:58.469Z,101830.72
2022-11-12T20:43:43.251Z,101824.94
2022-11-12T20:49:19.141Z,101837.50
2022-11-12T20:54:52.854Z,101839.47
2022-11-12T21:00:25.087Z,101827.63
2022-11-12T21:05:49.672Z,101827.13
2022-11-12T21:11:22.128Z,101817.84
2022-11-12T21:16:50.196Z,101819.03
2022-11-12T21:22:26.083Z,101818.44
2022-11-12T21:27:48.534Z,101812.78
2022-11-12T21:33:15.920Z,101824.31
2022-11-12T21:38:40.286Z,101814.09
2022-11-12T21:44:16.991Z,101811.25
2022-11-12T21:49:48.761Z,101805.34
2022-11-12T21:55:17.549Z,101803.81
2022-11-12T22:00:42.972Z,101801.44
2022-11-12T22:06:34.274Z,101798.16
2022-11-12T22:12:00.966Z,101789.72
2022-11-12T22:17:32.772Z,101797.09
2022-11-12T22:22:59.974Z,101791.28
2022-11-12T22:28:26.449Z,101792.53
2022-11-12T22:33:50.019Z,101792.59
2022-11-12T22:39:22.333Z,101794.69
2022-11-12T22:45:10.424Z,101790.50
2022-11-12T22:50:34.349Z,101793.56
2022-11-12T22:56:18.250Z,101791.94
2022-11-12T23:01:41.823Z,101779.28
2022-11-12T23:07:11.417Z,101776.09
2022-11-12T23:12:50.516Z,101766.75
2022-11-12T23:18:14.599Z,101761.06
2022-11-12T23:23:41.768Z,101755.25
2022-11-12T23:29:18.401Z,101753.56
2022-11-12T23:34:52.120Z,101752.25
2022-11-12T23:40:31.109Z,101743.88
2022-11-12T23:46:06.182Z,101737.13
2022-11-12T23:51:33.798Z,101734.00
2022-11-12T23:57:01.622Z,101724.06
